createdAt,value
2022-08-17T00:01:51.467Z,94608.16
2022-08-17T00:04:20.511Z,94609.72
2022-08-17T00:06:49.229Z,94601.28
2022-08-17T00:09:18.524Z,94608.44
2022-08-17T00:12:42.053Z,94607.41
2022-08-17T00:19:39.602Z,94612.69
2022-08-17T00:22:31.502Z,94615.84
2022-08-17T00:24:54.606Z,94615.69
2022-08-17T00:27:22.184Z,94607.22
2022-08-17T00:29:49.663Z,94606.19
2022-08-17T00:33:16.082Z,94605.78
2022-08-17T00:35:09.929Z,94593.09
2022-08-17T00:41:51.524Z,94591.81
2022-08-17T00:44:19.029Z,94591.09
2022-08-17T00:46:47.375Z,94598.66
2022-08-17T00:49:18.742Z,94593.47
2022-08-17T00:51:49.376Z,94602.50
2022-08-17T00:54:24.213Z,94598.75
2022-08-17T00:56:55.224Z,94594.50
2022-08-17T01:04:22.981Z,94597.97
2022-08-17T01:06:52.015Z,94599.00
2022-08-17T01:09:20.659Z,94598.75
2022-08-17T01:11:51.668Z,94600.06
2022-08-17T01:14:20.638Z,94601.91
2022-08-17T01:16:49.600Z,94590.72
2022-08-17T01:19:21.052Z,94595.78
2022-08-17T01:26:58.967Z,94602.44
2022-08-17T01:29:30.261Z,94599.44
2022-08-17T01:32:00.898Z,94586.13
2022-08-17T01:34:33.454Z,94588.81
2022-08-17T01:37:11.660Z,94600.47
2022-08-17T01:39:42.749Z,94594.19
2022-08-17T01:42:15.624Z,94584.50
2022-08-17T01:49:46.632Z,94592.47
2022-08-17T01:52:14.812Z,94587.59
2022-08-17T01:54:46.618Z,94589.25
2022-08-17T01:57:14.024Z,94591.34
2022-08-17T01:59:41.585Z,94594.88
2022-08-17T02:02:09.765Z,94590.66
2022-08-17T02:04:37.409Z,94593.34
2022-08-17T02:11:27.979Z,94591.19
2022-08-17T02:14:02.427Z,94591.03
2022-08-17T02:16:37.952Z,94587.63
2022-08-17T02:19:09.399Z,94589.59
2022-08-17T02:21:38.106Z,94587.50
2022-08-17T02:24:07.331Z,94592.00
2022-08-17T02:26:35.763Z,94589.84
2022-08-17T02:34:06.714Z,94598.16
2022-08-17T02:36:35.346Z,94590.94
2022-08-17T02:39:04.969Z,94593.13
2022-08-17T02:41:33.305Z,94595.31
2022-08-17T02:44:01.185Z,94601.25
2022-08-17T02:46:29.896Z,94593.31
2022-08-17T02:48:57.938Z,94601.47
2022-08-17T02:56:29.737Z,94595.75
2022-08-17T02:58:58.221Z,94595.47
2022-08-17T03:01:27.511Z,94595.78
2022-08-17T03:03:55.118Z,94592.69
2022-08-17T03:06:22.810Z,94602.06
2022-08-17T03:08:50.348Z,94595.63
2022-08-17T03:11:17.760Z,94605.88
2022-08-17T03:18:49.536Z,94609.94
2022-08-17T03:21:17.000Z,94605.91
2022-08-17T03:23:44.356Z,94615.28
2022-08-17T03:26:15.534Z,94614.72
2022-08-17T03:28:43.942Z,94616.59
2022-08-17T03:31:11.562Z,94614.81
2022-08-17T03:33:38.994Z,94616.66
2022-08-17T03:41:10.976Z,94613.31
2022-08-17T03:43:38.436Z,94624.53
2022-08-17T03:46:28.100Z,94622.44
2022-08-17T03:49:22.172Z,94621.50
2022-08-17T03:52:07.577Z,94626.88
2022-08-17T03:54:53.281Z,94623.63
2022-08-17T03:59:59.703Z,94636.03
2022-08-17T04:02:29.924Z,94637.81
2022-08-17T04:04:58.336Z,94638.44
2022-08-17T04:07:29.534Z,94639.53
2022-08-17T04:09:57.568Z,94635.66
2022-08-17T04:12:25.965Z,94654.91
2022-08-17T04:14:54.906Z,94650.69
2022-08-17T04:22:32.597Z,94666.16
2022-08-17T04:25:08.350Z,94674.25
2022-08-17T04:27:36.509Z,94671.94
2022-08-17T04:30:06.871Z,94677.75
2022-08-17T04:33:10.466Z,94684.56
2022-08-17T04:35:39.304Z,94679.22
2022-08-17T04:38:24.519Z,94678.84
2022-08-17T04:46:16.771Z,94693.84
2022-08-17T04:48:46.413Z,94688.69
2022-08-17T04:51:16.786Z,94684.97
2022-08-17T04:53:46.451Z,94687.66
2022-08-17T04:56:23.546Z,94690.22
2022-08-17T04:58:54.659Z,94686.78
2022-08-17T05:01:25.499Z,94690.09
2022-08-17T05:08:18.077Z,94686.47
2022-08-17T05:10:46.260Z,94677.38
2022-08-17T05:13:15.358Z,94683.19
2022-08-17T05:15:45.132Z,94686.44
2022-08-17T05:18:16.319Z,94688.53
2022-08-17T05:20:44.359Z,94680.72
2022-08-17T05:23:15.382Z,94684.59
2022-08-17T05:30:52.079Z,94698.19
2022-08-17T05:33:22.295Z,94700.78
2022-08-17T05:35:52.219Z,94711.19
2022-08-17T05:38:21.635Z,94711.72
2022-08-17T05:40:49.371Z,94704.16
2022-08-17T05:43:19.971Z,94705.81
2022-08-17T05:45:55.888Z,94717.31
2022-08-17T05:51:15.429Z,94714.41
2022-08-17T05:53:51.719Z,94710.25
2022-08-17T05:56:38.045Z,94707.91
2022-08-17T05:59:15.477Z,94714.72
2022-08-17T06:01:51.238Z,94706.97
2022-08-17T06:04:28.399Z,94704.13
2022-08-17T06:12:21.475Z,94706.97
2022-08-17T06:15:03.497Z,94707.06
2022-08-17T06:17:31.510Z,94699.44
2022-08-17T06:20:03.771Z,94697.84
2022-08-17T06:22:36.210Z,94697.03
2022-08-17T06:25:12.611Z,94708.22
2022-08-17T06:31:00.404Z,94694.88
2022-08-17T06:33:34.079Z,94699.19
2022-08-17T06:36:10.466Z,94698.66
2022-08-17T06:38:50.140Z,94699.47
2022-08-17T06:41:24.706Z,94695.06
2022-08-17T06:44:06.045Z,94694.09
2022-08-17T06:46:55.443Z,94694.66
2022-08-17T06:54:05.391Z,94696.16
2022-08-17T06:56:54.227Z,94703.59
2022-08-17T06:59:53.183Z,94699.88
2022-08-17T07:02:19.532Z,94706.00
2022-08-17T07:04:59.966Z,94699.47
2022-08-17T07:07:45.511Z,94701.81
2022-08-17T07:15:21.079Z,94698.22
2022-08-17T07:17:49.068Z,94708.81
2022-08-17T07:20:19.976Z,94707.34
2022-08-17T07:23:00.061Z,94707.28
2022-08-17T07:25:30.023Z,94711.03
2022-08-17T07:28:01.839Z,94708.41
2022-08-17T07:30:40.093Z,94703.63
2022-08-17T07:38:24.125Z,94693.66
2022-08-17T07:41:04.611Z,94683.81
2022-08-17T07:43:34.904Z,94691.09
2022-08-17T07:46:32.234Z,94693.22
2022-08-17T07:49:21.991Z,94693.94
2022-08-17T07:52:13.400Z,94691.03
2022-08-17T08:00:16.664Z,94687.56
2022-08-17T08:02:46.862Z,94696.41
2022-08-17T08:05:32.883Z,94686.94
2022-08-17T08:08:29.164Z,94690.31
2022-08-17T08:11:07.413Z,94693.84
2022-08-17T08:13:41.725Z,94697.72
2022-08-17T08:21:33.363Z,94679.53
2022-08-17T08:24:15.138Z,94682.63
2022-08-17T08:26:48.979Z,94673.41
2022-08-17T08:29:27.697Z,94677.75
2022-08-17T08:32:05.308Z,94668.94
2022-08-17T08:35:02.961Z,94678.84
2022-08-17T08:41:24.088Z,94674.63
2022-08-17T08:44:07.640Z,94668.19
2022-08-17T08:46:47.014Z,94665.19
2022-08-17T08:50:03.465Z,94669.53
2022-08-17T08:52:51.795Z,94665.03
2022-08-17T08:55:25.978Z,94658.00
2022-08-17T09:02:23.032Z,94669.91
2022-08-17T09:05:14.249Z,94662.44
2022-08-17T09:07:56.340Z,94665.31
2022-08-17T09:10:30.656Z,94664.66
2022-08-17T09:13:11.269Z,94667.16
2022-08-17T09:15:43.066Z,94664.97
2022-08-17T09:20:59.068Z,94662.41
2022-08-17T09:23:32.351Z,94664.63
2022-08-17T09:26:06.459Z,94665.50
2022-08-17T09:28:37.394Z,94666.88
2022-08-17T09:31:09.080Z,94661.19
2022-08-17T09:33:42.541Z,94660.19
2022-08-17T09:36:18.213Z,94658.38
2022-08-17T09:43:30.689Z,94654.81
2022-08-17T09:46:02.915Z,94654.25
2022-08-17T09:48:35.783Z,94652.50
2022-08-17T09:51:07.337Z,94655.09
2022-08-17T09:53:36.955Z,94654.91
2022-08-17T09:56:20.680Z,94646.09
2022-08-17T10:05:45.755Z,94649.78
2022-08-17T10:08:23.166Z,94637.97
2022-08-17T10:11:04.988Z,94647.47
2022-08-17T10:13:40.619Z,94644.34
2022-08-17T10:16:26.104Z,94633.56
2022-08-17T10:19:10.358Z,94640.75
2022-08-17T10:25:20.879Z,94649.38
2022-08-17T10:27:37.704Z,94643.53
2022-08-17T10:30:08.075Z,94632.53
2022-08-17T10:32:40.965Z,94645.47
2022-08-17T10:35:25.447Z,94636.56
2022-08-17T10:38:31.199Z,94637.75
2022-08-17T10:46:30.662Z,94639.09
2022-08-17T10:49:24.639Z,94644.19
2022-08-17T10:51:53.935Z,94632.81
2022-08-17T10:54:46.829Z,94635.94
2022-08-17T10:57:32.614Z,94637.44
2022-08-17T11:00:01.571Z,94637.88
2022-08-17T11:07:51.433Z,94630.28
2022-08-17T11:10:39.334Z,94639.63
2022-08-17T11:13:17.176Z,94620.88
2022-08-17T11:15:59.422Z,94637.38
2022-08-17T11:19:04.609Z,94624.84
2022-08-17T11:21:54.205Z,94634.69
2022-08-17T11:29:08.481Z,94639.81
2022-08-17T11:31:39.863Z,94647.66
2022-08-17T11:34:19.118Z,94637.81
2022-08-17T11:37:12.176Z,94640.22
2022-08-17T11:40:04.718Z,94647.63
2022-08-17T11:42:50.400Z,94642.13
2022-08-17T11:50:16.811Z,94640.56
2022-08-17T11:52:47.372Z,94633.50
2022-08-17T11:55:50.204Z,94642.16
2022-08-17T11:58:37.492Z,94635.47
2022-08-17T12:01:06.623Z,94626.44
2022-08-17T12:03:54.034Z,94631.94
2022-08-17T12:12:01.640Z,94636.63
2022-08-17T12:15:05.960Z,94635.47
2022-08-17T12:17:39.488Z,94635.47
2022-08-17T12:20:14.480Z,94628.81
2022-08-17T12:22:54.227Z,94627.47
2022-08-17T12:25:26.820Z,94626.31
2022-08-17T12:32:58.245Z,94612.41
2022-08-17T12:35:30.006Z,94613.28
2022-08-17T12:37:57.899Z,94604.84
2022-08-17T12:40:27.857Z,94603.84
2022-08-17T12:42:58.209Z,94614.72
2022-08-17T12:45:29.019Z,94603.84
2022-08-17T12:48:06.556Z,94602.22
2022-08-17T12:55:39.923Z,94599.94
2022-08-17T12:58:14.508Z,94591.94
2022-08-17T13:00:49.519Z,94594.16
2022-08-17T13:03:20.416Z,94589.13
2022-08-17T13:05:57.774Z,94600.03
2022-08-17T13:08:29.460Z,94603.59
2022-08-17T13:13:53.768Z,94597.00
2022-08-17T13:16:23.802Z,94592.28
2022-08-17T13:18:54.623Z,94590.66
2022-08-17T13:21:27.129Z,94592.50
2022-08-17T13:23:58.565Z,94597.25
2022-08-17T13:26:31.982Z,94589.56
2022-08-17T13:29:01.704Z,94594.13
2022-08-17T13:36:32.932Z,94596.81
2022-08-17T13:39:13.329Z,94589.59
2022-08-17T13:41:40.817Z,94591.09
2022-08-17T13:44:30.732Z,94594.47
2022-08-17T13:46:59.678Z,94591.50
2022-08-17T13:49:48.040Z,94590.63
2022-08-17T13:57:22.011Z,94592.69
2022-08-17T13:59:54.673Z,94590.41
2022-08-17T14:02:25.883Z,94585.00
2022-08-17T14:04:57.785Z,94579.41
2022-08-17T14:07:30.404Z,94587.00
2022-08-17T14:10:00.769Z,94581.69
2022-08-17T14:17:39.082Z,94574.19
2022-08-17T14:20:10.508Z,94576.91
2022-08-17T14:22:40.224Z,94575.66
2022-08-17T14:25:10.646Z,94565.97
2022-08-17T14:27:51.770Z,94574.22
2022-08-17T14:30:23.546Z,94568.34
2022-08-17T14:35:32.281Z,94566.34
2022-08-17T14:38:01.588Z,94564.69
2022-08-17T14:40:29.372Z,94567.63
2022-08-17T14:42:57.237Z,94563.97
2022-08-17T14:45:30.293Z,94561.03
2022-08-17T14:48:03.694Z,94561.59
2022-08-17T14:50:35.271Z,94568.78
2022-08-17T14:57:58.941Z,94575.47
2022-08-17T15:00:26.927Z,94573.03
2022-08-17T15:02:57.580Z,94571.56
2022-08-17T15:05:30.797Z,94576.59
2022-08-17T15:07:58.646Z,94577.34
2022-08-17T15:10:27.324Z,94570.22
2022-08-17T15:12:55.581Z,94580.88
2022-08-17T15:20:29.285Z,94575.13
2022-08-17T15:22:58.409Z,94574.72
2022-08-17T15:25:27.782Z,94569.53
2022-08-17T15:27:55.640Z,94573.38
2022-08-17T15:30:25.118Z,94572.13
2022-08-17T15:32:54.962Z,94566.00
2022-08-17T15:35:27.899Z,94576.06
2022-08-17T15:42:40.557Z,94578.09
2022-08-17T15:45:10.870Z,94585.34
2022-08-17T15:47:39.393Z,94577.00
2022-08-17T15:50:08.232Z,94582.81
2022-08-17T15:52:39.636Z,94585.19
2022-08-17T15:55:13.324Z,94586.72
2022-08-17T15:57:42.190Z,94585.44
2022-08-17T16:04:33.966Z,94587.28
2022-08-17T16:07:01.629Z,94591.09
2022-08-17T16:09:29.219Z,94585.97
2022-08-17T16:11:56.910Z,94590.25
2022-08-17T16:14:25.425Z,94586.31
2022-08-17T16:17:00.137Z,94590.00
2022-08-17T16:19:27.580Z,94585.34
2022-08-17T16:26:58.461Z,94588.91
2022-08-17T16:29:26.120Z,94592.66
2022-08-17T16:31:53.747Z,94590.53
2022-08-17T16:34:21.469Z,94587.66
2022-08-17T16:36:51.809Z,94588.31
2022-08-17T16:39:26.266Z,94592.09
2022-08-17T16:41:55.124Z,94590.53
2022-08-17T16:48:39.793Z,94593.75
2022-08-17T16:51:07.866Z,94600.53
2022-08-17T16:53:36.712Z,94595.28
2022-08-17T16:56:06.808Z,94601.09
2022-08-17T16:58:35.287Z,94595.38
2022-08-17T17:01:03.749Z,94598.38
2022-08-17T17:06:16.914Z,94601.16
2022-08-17T17:08:52.118Z,94600.28
2022-08-17T17:11:26.633Z,94604.00
2022-08-17T17:14:01.475Z,94597.94
2022-08-17T17:16:37.353Z,94608.44
2022-08-17T17:19:11.548Z,94606.22
2022-08-17T17:24:51.813Z,94605.97
2022-08-17T17:27:33.579Z,94610.88
2022-08-17T17:30:09.365Z,94612.91
2022-08-17T17:32:40.952Z,94621.59
2022-08-17T17:35:14.996Z,94622.28
2022-08-17T17:37:45.008Z,94617.84
2022-08-17T17:43:37.078Z,94627.38
2022-08-17T17:46:09.183Z,94631.81
2022-08-17T17:48:51.429Z,94637.50
2022-08-17T17:51:55.695Z,94647.88
2022-08-17T17:54:20.989Z,94646.41
2022-08-17T17:56:59.511Z,94647.78
2022-08-17T18:04:43.985Z,94660.19
2022-08-17T18:07:22.452Z,94655.06
2022-08-17T18:10:19.814Z,94662.59
2022-08-17T18:13:07.515Z,94662.53
2022-08-17T18:15:41.532Z,94660.09
2022-08-17T18:18:43.996Z,94671.78
2022-08-17T18:25:53.106Z,94677.81
2022-08-17T18:28:25.215Z,94674.25
2022-08-17T18:31:06.212Z,94678.19
2022-08-17T18:33:34.662Z,94682.56
2022-08-17T18:36:02.527Z,94684.66
2022-08-17T18:38:33.130Z,94690.53
2022-08-17T18:41:05.301Z,94690.81
2022-08-17T18:48:53.130Z,94695.38
2022-08-17T18:51:40.996Z,94697.03
2022-08-17T18:54:22.540Z,94703.09
2022-08-17T18:56:54.601Z,94695.94
2022-08-17T18:59:27.511Z,94708.84
2022-08-17T19:02:27.369Z,94701.59
2022-08-17T19:10:13.519Z,94711.03
2022-08-17T19:12:46.510Z,94700.00
2022-08-17T19:15:18.111Z,94716.09
2022-08-17T19:17:51.533Z,94707.69
2022-08-17T19:20:24.176Z,94712.16
2022-08-17T19:23:02.133Z,94713.28
2022-08-17T19:28:23.790Z,94713.78
2022-08-17T19:30:56.818Z,94713.94
2022-08-17T19:33:25.869Z,94717.59
2022-08-17T19:36:05.338Z,94721.25
2022-08-17T19:38:54.569Z,94714.59
2022-08-17T19:41:28.273Z,94718.09
2022-08-17T19:47:06.204Z,94729.38
2022-08-17T19:49:46.073Z,94720.97
2022-08-17T19:52:37.000Z,94724.94
2022-08-17T19:55:09.574Z,94720.16
2022-08-17T19:57:48.756Z,94726.84
2022-08-17T20:00:18.097Z,94722.06
2022-08-17T20:06:11.522Z,94728.88
2022-08-17T20:08:39.753Z,94726.63
2022-08-17T20:11:10.854Z,94728.06
2022-08-17T20:13:42.017Z,94728.69
2022-08-17T20:16:11.071Z,94728.81
2022-08-17T20:18:47.880Z,94722.44
2022-08-17T20:21:20.296Z,94727.81
2022-08-17T20:29:06.915Z,94728.91
2022-08-17T20:31:46.570Z,94734.31
2022-08-17T20:34:36.920Z,94733.66
2022-08-17T20:37:09.199Z,94735.88
2022-08-17T20:39:39.810Z,94735.34
2022-08-17T20:42:29.961Z,94735.66
2022-08-17T20:50:38.603Z,94742.13
2022-08-17T20:53:08.997Z,94744.94
2022-08-17T20:55:55.006Z,94744.00
2022-08-17T20:58:47.834Z,94743.31
2022-08-17T21:01:23.650Z,94748.06
2022-08-17T21:03:52.334Z,94748.00
2022-08-17T21:06:24.250Z,94750.94
2022-08-17T21:14:06.148Z,94741.53
2022-08-17T21:17:00.726Z,94734.69
2022-08-17T21:20:00.600Z,94739.00
2022-08-17T21:22:47.560Z,94743.13
2022-08-17T21:25:32.328Z,94752.72
2022-08-17T21:28:10.757Z,94740.47
2022-08-17T21:33:30.981Z,94758.72
2022-08-17T21:36:31.620Z,94748.94
2022-08-17T21:39:08.139Z,94747.34
2022-08-17T21:41:50.041Z,94751.44
2022-08-17T21:44:26.713Z,94752.84
2022-08-17T21:47:13.366Z,94757.75
2022-08-17T21:54:51.074Z,94760.00
2022-08-17T21:57:22.176Z,94757.41
2022-08-17T21:59:53.559Z,94755.63
2022-08-17T22:02:23.962Z,94757.94
2022-08-17T22:04:59.667Z,94756.66
2022-08-17T22:07:50.119Z,94765.03
2022-08-17T22:15:50.770Z,94760.44
2022-08-17T22:18:26.719Z,94756.16
2022-08-17T22:20:56.585Z,94761.25
2022-08-17T22:23:46.275Z,94758.06
2022-08-17T22:26:17.634Z,94755.59
2022-08-17T22:28:48.417Z,94754.38
2022-08-17T22:31:19.496Z,94746.75
2022-08-17T22:38:44.438Z,94743.53
2022-08-17T22:41:35.701Z,94750.13
2022-08-17T22:44:19.996Z,94747.66
2022-08-17T22:46:58.189Z,94745.16
2022-08-17T22:49:28.697Z,94737.41
2022-08-17T22:52:23.947Z,94739.50
2022-08-17T23:02:20.353Z,94734.13
2022-08-17T23:04:51.258Z,94733.91
2022-08-17T23:07:20.355Z,94732.91
2022-08-17T23:09:47.847Z,94735.56
2022-08-17T23:12:22.011Z,94726.44
2022-08-17T23:14:50.978Z,94728.03
2022-08-17T23:17:18.501Z,94731.22
2022-08-17T23:24:50.659Z,94730.22
2022-08-17T23:27:19.320Z,94733.63
2022-08-17T23:29:48.143Z,94721.34
2022-08-17T23:32:17.769Z,94727.31
2022-08-17T23:34:47.673Z,94727.22
2022-08-17T23:37:16.407Z,94732.31
2022-08-17T23:39:44.671Z,94737.41
2022-08-17T23:47:16.823Z,94729.31
2022-08-17T23:49:44.237Z,94725.75
2022-08-17T23:52:15.210Z,94732.50
2022-08-17T23:54:46.146Z,94731.81
2022-08-17T23:57:16.465Z,94724.94
2022-08-17T23:59:44.540Z,94723.94
